Wylliesburg, VA

5:19 PM EST on February 13, 2016 (GMT -0500)
Crump Farm Near Wylliesburg | | Change Station
CLOSE
Current Station
Personal Weather Station
Location: Chase City, VA
Elevation: 510 ft
Nearby Weather Stations
Active Advisory: Winter Storm Watch

Elev 510 ft 36.84 °N, 78.56 °W | Updated 19 seconds ago

Clear
Clear
26.5 °F
Feels Like 22 °F
N
4.0
Wind Variable Wind from West
Gusts 19.0 mph

Today
High -- | Low -- °F
--% Chance of Precip.
Yesterday
High -- | Low -- °F
Precip. -- in
Pressure 30.31 in
Visibility 10.0 miles
Clouds Clear
Windchill 22 °F
Dew Point 1 °F
Humidity 32%
Rainfall 0.00 in
Snow Depth Not available.
7:05 AM 5:52 PM
Waxing Crescent, 34% visible
METAR KHNZ 132155Z AUTO 32010G15KT 10SM CLR M01/M21 A3031 RMK AO2 T10131214
Pressure 30.31 in
Visibility 10.0 miles
Clouds Clear
Windchill 22 °F
Dew Point 1 °F
Humidity 32%
Rainfall 0.00 in
Snow Depth Not available.
7:05 AM 5:52 PM
Waxing Crescent, 34% visible
METAR KHNZ 132155Z AUTO 32010G15KT 10SM CLR M01/M21 A3031 RMK AO2 T10131214

10-Day Weather Forecast

Almanac

Astronomy

Feb. 13, 2016 Rise Set
Actual Time
Civil Twilight
Nautical Twilight
Astronomical Twilight
Moon
Length of Visible Light
Length of Day
Tomorrow will be .
, % of the Moon is Illuminated

Today's Extremes

State Highs State Lows

Community

WunderPhotos

Upload Photos

1,892,687 photos uploaded!

WunderBlog® & News

Nearby

Air Quality

  Air Quality AQ Index Pollutant
Not available.

Snow Depth

Station Depth Elevation

Earthquake Activity

City Distance Mag. Time & Date
Minimum magnitude displayed is 2.5.

Coastal Water Temperatures

Place Temperature

Stations

Nearby Weather Stations

Station Location Temp. Windchill Dew Point Humidity Wind Precip. Elev Updated Type
                   

Watches & Warnings

Winter Storm Watch
Issued: 2:30 PM EST Feb. 13, 2016 – National Weather Service

... Winter Storm Watch in effect from Sunday evening through
Tuesday morning...

The National Weather Service in Blacksburg has issued a Winter
Storm Watch... which is in effect from Sunday evening through
Tuesday morning.

* Locations... foothills and Piedmont of northwest North Carolina
into Southside Virginia.

* Hazard types... snow... sleet and freezing rain.

* Accumulations... 2 to 5 inches of snow and sleet. Around a tenth
of an inch of ice.

* Timing... snow developing Sunday night before changing to a
wintry mix of sleet and some freezing rain Monday afternoon into
early Tuesday.

* Impacts... travel will become hazardous Sunday night into early
Tuesday.

* Temperatures... in the 20s to around 30.


Precautionary/preparedness actions...

A Winter Storm Watch means there is a potential for significant
snow... sleet... or ice accumulations that may impact travel.
Continue to monitor the latest forecasts.